sensor_id;sensor_type;location;lat;lon;timestamp;temperature;humidity
37594;DHT22;23441;50.856;6.076;2024-02-23T00:01:49;5.00;99.90
37594;DHT22;23441;50.856;6.076;2024-02-23T00:04:34;5.00;99.90
37594;DHT22;23441;50.856;6.076;2024-02-23T00:07:20;5.10;99.90
37594;DHT22;23441;50.856;6.076;2024-02-23T00:10:07;5.00;99.90
37594;DHT22;23441;50.856;6.076;2024-02-23T00:12:53;5.00;99.90
37594;DHT22;23441;50.856;6.076;2024-02-23T00:15:39;5.00;99.90
37594;DHT22;23441;50.856;6.076;2024-02-23T00:18:25;4.90;99.90
37594;DHT22;23441;50.856;6.076;2024-02-23T00:21:11;4.80;99.90
37594;DHT22;23441;50.856;6.076;2024-02-23T00:23:57;4.70;99.90
37594;DHT22;23441;50.856;6.076;2024-02-23T00:26:43;4.60;99.90
37594;DHT22;23441;50.856;6.076;2024-02-23T00:29:29;4.60;99.90
37594;DHT22;23441;50.856;6.076;2024-02-23T00:32:15;4.60;99.90
37594;DHT22;23441;50.856;6.076;2024-02-23T00:35:01;4.60;99.90
37594;DHT22;23441;50.856;6.076;2024-02-23T00:37:47;4.60;99.90
37594;DHT22;23441;50.856;6.076;2024-02-23T00:40:33;4.60;99.90
37594;DHT22;23441;50.856;6.076;2024-02-23T00:43:19;4.70;99.90
37594;DHT22;23441;50.856;6.076;2024-02-23T00:46:05;4.70;99.90
37594;DHT22;23441;50.856;6.076;2024-02-23T00:48:51;4.80;99.90
37594;DHT22;23441;50.856;6.076;2024-02-23T00:51:37;4.80;99.90
37594;DHT22;23441;50.856;6.076;2024-02-23T00:54:23;4.90;99.90
37594;DHT22;23441;50.856;6.076;2024-02-23T00:57:09;4.90;99.90
37594;DHT22;23441;50.856;6.076;2024-02-23T00:59:56;4.90;99.90
37594;DHT22;23441;50.856;6.076;2024-02-23T01:02:42;4.80;99.90
37594;DHT22;23441;50.856;6.076;2024-02-23T01:05:28;4.80;99.90
37594;DHT22;23441;50.856;6.076;2024-02-23T01:08:14;4.70;99.90
37594;DHT22;23441;50.856;6.076;2024-02-23T01:11:00;4.70;99.90
37594;DHT22;23441;50.856;6.076;2024-02-23T01:13:46;4.60;99.90
37594;DHT22;23441;50.856;6.076;2024-02-23T01:16:32;4.60;99.90
37594;DHT22;23441;50.856;6.076;2024-02-23T01:19:18;4.60;99.90
37594;DHT22;23441;50.856;6.076;2024-02-23T01:22:04;4.60;99.90
37594;DHT22;23441;50.856;6.076;2024-02-23T01:24:50;4.70;99.90
37594;DHT22;23441;50.856;6.076;2024-02-23T01:27:36;4.70;99.90
37594;DHT22;23441;50.856;6.076;2024-02-23T01:30:23;4.80;99.90
37594;DHT22;23441;50.856;6.076;2024-02-23T01:33:08;4.80;99.90
37594;DHT22;23441;50.856;6.076;2024-02-23T01:35:54;4.70;99.90
37594;DHT22;23441;50.856;6.076;2024-02-23T01:38:41;4.80;99.90
37594;DHT22;23441;50.856;6.076;2024-02-23T01:41:28;4.80;99.90
37594;DHT22;23441;50.856;6.076;2024-02-23T01:44:14;4.70;99.90
37594;DHT22;23441;50.856;6.076;2024-02-23T01:47:01;4.70;99.90
37594;DHT22;23441;50.856;6.076;2024-02-23T01:49:48;4.70;99.90
37594;DHT22;23441;50.856;6.076;2024-02-23T01:52:34;4.60;99.90
37594;DHT22;23441;50.856;6.076;2024-02-23T01:55:20;4.60;99.90
37594;DHT22;23441;50.856;6.076;2024-02-23T01:58:07;4.60;99.90
37594;DHT22;23441;50.856;6.076;2024-02-23T02:00:53;4.70;99.90
37594;DHT22;23441;50.856;6.076;2024-02-23T02:03:39;4.70;99.90
37594;DHT22;23441;50.856;6.076;2024-02-23T02:06:25;4.60;99.90
37594;DHT22;23441;50.856;6.076;2024-02-23T02:09:11;4.60;99.90
37594;DHT22;23441;50.856;6.076;2024-02-23T02:11:57;4.50;99.90
37594;DHT22;23441;50.856;6.076;2024-02-23T02:14:43;4.50;99.90
37594;DHT22;23441;50.856;6.076;2024-02-23T02:17:29;4.50;99.90
37594;DHT22;23441;50.856;6.076;2024-02-23T02:20:17;4.40;99.90
37594;DHT22;23441;50.856;6.076;2024-02-23T02:23:04;4.50;99.90
37594;DHT22;23441;50.856;6.076;2024-02-23T02:25:53;4.50;99.90
37594;DHT22;23441;50.856;6.076;2024-02-23T02:28:39;4.50;99.90
37594;DHT22;23441;50.856;6.076;2024-02-23T02:31:25;4.50;99.90
37594;DHT22;23441;50.856;6.076;2024-02-23T02:34:11;4.50;99.90
37594;DHT22;23441;50.856;6.076;2024-02-23T02:37:00;4.50;99.90
37594;DHT22;23441;50.856;6.076;2024-02-23T02:39:46;4.50;99.90
37594;DHT22;23441;50.856;6.076;2024-02-23T02:42:33;4.60;99.90
37594;DHT22;23441;50.856;6.076;2024-02-23T02:45:19;4.50;99.90
37594;DHT22;23441;50.856;6.076;2024-02-23T02:48:05;4.40;99.90
37594;DHT22;23441;50.856;6.076;2024-02-23T02:50:51;4.50;99.90
37594;DHT22;23441;50.856;6.076;2024-02-23T02:53:37;4.50;99.90
37594;DHT22;23441;50.856;6.076;2024-02-23T02:56:23;4.50;99.90
37594;DHT22;23441;50.856;6.076;2024-02-23T02:59:09;4.50;99.90
37594;DHT22;23441;50.856;6.076;2024-02-23T03:01:58;4.60;99.90
37594;DHT22;23441;50.856;6.076;2024-02-23T03:04:51;4.70;99.90
37594;DHT22;23441;50.856;6.076;2024-02-23T03:07:36;4.70;99.90
37594;DHT22;23441;50.856;6.076;2024-02-23T03:10:22;4.70;99.90
37594;DHT22;23441;50.856;6.076;2024-02-23T03:13:08;4.70;99.90
37594;DHT22;23441;50.856;6.076;2024-02-23T03:15:54;4.70;99.90
37594;DHT22;23441;50.856;6.076;2024-02-23T03:18:40;4.80;99.90
37594;DHT22;23441;50.856;6.076;2024-02-23T03:21:26;4.80;99.90
37594;DHT22;23441;50.856;6.076;2024-02-23T03:24:12;4.90;99.90
37594;DHT22;23441;50.856;6.076;2024-02-23T03:26:58;4.90;99.90
37594;DHT22;23441;50.856;6.076;2024-02-23T03:29:44;4.90;99.90
37594;DHT22;23441;50.856;6.076;2024-02-23T03:32:29;4.90;99.90
37594;DHT22;23441;50.856;6.076;2024-02-23T03:35:21;4.90;99.90
37594;DHT22;23441;50.856;6.076;2024-02-23T03:38:07;4.90;99.90
37594;DHT22;23441;50.856;6.076;2024-02-23T03:40:54;4.90;99.90
37594;DHT22;23441;50.856;6.076;2024-02-23T03:43:39;5.00;99.90
37594;DHT22;23441;50.856;6.076;2024-02-23T03:46:25;4.90;99.90
37594;DHT22;23441;50.856;6.076;2024-02-23T03:49:12;4.90;99.90
37594;DHT22;23441;50.856;6.076;2024-02-23T03:51:58;4.90;99.90
37594;DHT22;23441;50.856;6.076;2024-02-23T03:54:43;4.90;99.90
37594;DHT22;23441;50.856;6.076;2024-02-23T03:57:29;5.00;99.90
37594;DHT22;23441;50.856;6.076;2024-02-23T04:00:15;5.00;99.90
37594;DHT22;23441;50.856;6.076;2024-02-23T04:03:01;5.00;99.90
37594;DHT22;23441;50.856;6.076;2024-02-23T04:05:47;5.00;99.90
37594;DHT22;23441;50.856;6.076;2024-02-23T04:08:33;5.00;99.90
37594;DHT22;23441;50.856;6.076;2024-02-23T04:11:19;5.00;99.90
37594;DHT22;23441;50.856;6.076;2024-02-23T04:14:05;5.10;99.90
37594;DHT22;23441;50.856;6.076;2024-02-23T04:16:51;5.10;99.90
37594;DHT22;23441;50.856;6.076;2024-02-23T04:19:37;5.10;99.90
37594;DHT22;23441;50.856;6.076;2024-02-23T04:22:23;5.00;99.90
37594;DHT22;23441;50.856;6.076;2024-02-23T04:25:09;5.00;99.90
37594;DHT22;23441;50.856;6.076;2024-02-23T04:27:55;4.90;99.90
37594;DHT22;23441;50.856;6.076;2024-02-23T04:30:41;5.00;99.90
37594;DHT22;23441;50.856;6.076;2024-02-23T04:33:27;5.00;99.90
37594;DHT22;23441;50.856;6.076;2024-02-23T04:36:19;5.00;99.90
37594;DHT22;23441;50.856;6.076;2024-02-23T04:39:05;5.00;99.90
37594;DHT22;23441;50.856;6.076;2024-02-23T04:41:51;5.00;99.90
37594;DHT22;23441;50.856;6.076;2024-02-23T04:44:37;5.10;99.90
37594;DHT22;23441;50.856;6.076;2024-02-23T04:47:23;5.00;99.90
37594;DHT22;23441;50.856;6.076;2024-02-23T04:50:09;5.10;99.90
37594;DHT22;23441;50.856;6.076;2024-02-23T04:52:55;5.00;99.90
37594;DHT22;23441;50.856;6.076;2024-02-23T04:55:41;5.10;99.90
37594;DHT22;23441;50.856;6.076;2024-02-23T04:58:27;5.10;99.90
37594;DHT22;23441;50.856;6.076;2024-02-23T05:01:13;5.00;99.90
37594;DHT22;23441;50.856;6.076;2024-02-23T05:03:59;5.10;99.90
37594;DHT22;23441;50.856;6.076;2024-02-23T05:06:45;5.10;99.90
37594;DHT22;23441;50.856;6.076;2024-02-23T05:09:31;5.10;99.90
37594;DHT22;23441;50.856;6.076;2024-02-23T05:12:17;5.10;99.90
37594;DHT22;23441;50.856;6.076;2024-02-23T05:15:04;5.10;99.90
37594;DHT22;23441;50.856;6.076;2024-02-23T05:17:50;5.00;99.90
37594;DHT22;23441;50.856;6.076;2024-02-23T05:20:36;5.00;99.90
37594;DHT22;23441;50.856;6.076;2024-02-23T05:23:21;5.00;99.90
37594;DHT22;23441;50.856;6.076;2024-02-23T05:26:07;5.00;99.90
37594;DHT22;23441;50.856;6.076;2024-02-23T05:28:53;5.00;99.90
37594;DHT22;23441;50.856;6.076;2024-02-23T05:31:51;5.00;99.90
37594;DHT22;23441;50.856;6.076;2024-02-23T05:34:37;5.00;99.90
37594;DHT22;23441;50.856;6.076;2024-02-23T05:37:23;5.00;99.90
37594;DHT22;23441;50.856;6.076;2024-02-23T05:40:09;5.00;99.90
37594;DHT22;23441;50.856;6.076;2024-02-23T05:42:56;5.00;99.90
37594;DHT22;23441;50.856;6.076;2024-02-23T05:45:42;5.10;99.90
37594;DHT22;23441;50.856;6.076;2024-02-23T05:48:29;5.00;99.90
37594;DHT22;23441;50.856;6.076;2024-02-23T05:51:15;5.00;99.90
37594;DHT22;23441;50.856;6.076;2024-02-23T05:54:00;5.00;99.90
37594;DHT22;23441;50.856;6.076;2024-02-23T05:56:46;4.90;99.90
37594;DHT22;23441;50.856;6.076;2024-02-23T05:59:33;5.00;99.90
37594;DHT22;23441;50.856;6.076;2024-02-23T06:02:19;5.00;99.90
37594;DHT22;23441;50.856;6.076;2024-02-23T06:05:05;5.00;99.90
37594;DHT22;23441;50.856;6.076;2024-02-23T06:07:53;5.00;99.90
37594;DHT22;23441;50.856;6.076;2024-02-23T06:10:39;4.90;99.90
37594;DHT22;23441;50.856;6.076;2024-02-23T06:13:25;4.90;99.90
37594;DHT22;23441;50.856;6.076;2024-02-23T06:16:11;4.90;99.90
37594;DHT22;23441;50.856;6.076;2024-02-23T06:18:57;4.80;99.90
37594;DHT22;23441;50.856;6.076;2024-02-23T06:21:47;4.80;99.90
37594;DHT22;23441;50.856;6.076;2024-02-23T06:24:34;4.80;99.90
37594;DHT22;23441;50.856;6.076;2024-02-23T06:27:19;4.70;99.90
37594;DHT22;23441;50.856;6.076;2024-02-23T06:30:09;4.70;99.90
37594;DHT22;23441;50.856;6.076;2024-02-23T06:32:56;4.70;99.90
37594;DHT22;23441;50.856;6.076;2024-02-23T06:35:42;4.60;99.90
37594;DHT22;23441;50.856;6.076;2024-02-23T06:38:28;4.70;99.90
37594;DHT22;23441;50.856;6.076;2024-02-23T06:41:14;4.60;99.90
37594;DHT22;23441;50.856;6.076;2024-02-23T06:44:00;4.70;99.90
37594;DHT22;23441;50.856;6.076;2024-02-23T06:46:46;4.70;99.90
37594;DHT22;23441;50.856;6.076;2024-02-23T06:49:32;4.70;99.90
37594;DHT22;23441;50.856;6.076;2024-02-23T06:52:18;4.70;99.90
37594;DHT22;23441;50.856;6.076;2024-02-23T06:55:04;4.80;99.90
37594;DHT22;23441;50.856;6.076;2024-02-23T06:57:50;4.80;99.90
37594;DHT22;23441;50.856;6.076;2024-02-23T07:00:36;4.70;99.90
37594;DHT22;23441;50.856;6.076;2024-02-23T07:03:22;4.70;99.90
37594;DHT22;23441;50.856;6.076;2024-02-23T07:06:08;4.70;99.90
37594;DHT22;23441;50.856;6.076;2024-02-23T07:08:55;4.70;99.90
37594;DHT22;23441;50.856;6.076;2024-02-23T07:11:41;4.80;99.90
37594;DHT22;23441;50.856;6.076;2024-02-23T07:14:29;4.80;99.90
37594;DHT22;23441;50.856;6.076;2024-02-23T07:17:17;4.80;99.90
37594;DHT22;23441;50.856;6.076;2024-02-23T07:20:04;4.70;99.90
37594;DHT22;23441;50.856;6.076;2024-02-23T07:22:53;4.80;99.90
37594;DHT22;23441;50.856;6.076;2024-02-23T07:25:39;4.80;99.90
37594;DHT22;23441;50.856;6.076;2024-02-23T07:28:26;4.80;99.90
37594;DHT22;23441;50.856;6.076;2024-02-23T07:31:12;4.90;99.90
37594;DHT22;23441;50.856;6.076;2024-02-23T07:33:58;4.90;99.90
37594;DHT22;23441;50.856;6.076;2024-02-23T07:36:44;4.90;99.90
37594;DHT22;23441;50.856;6.076;2024-02-23T07:39:30;4.90;99.90
37594;DHT22;23441;50.856;6.076;2024-02-23T07:42:16;5.00;99.90
37594;DHT22;23441;50.856;6.076;2024-02-23T07:45:05;5.00;99.90
37594;DHT22;23441;50.856;6.076;2024-02-23T07:47:52;5.00;99.90
37594;DHT22;23441;50.856;6.076;2024-02-23T07:50:38;5.00;99.90
37594;DHT22;23441;50.856;6.076;2024-02-23T07:53:23;5.10;99.90
37594;DHT22;23441;50.856;6.076;2024-02-23T07:56:10;5.00;99.90
37594;DHT22;23441;50.856;6.076;2024-02-23T07:58:56;5.30;99.90
37594;DHT22;23441;50.856;6.076;2024-02-23T08:01:42;5.60;99.90
37594;DHT22;23441;50.856;6.076;2024-02-23T08:04:28;5.50;99.90
37594;DHT22;23441;50.856;6.076;2024-02-23T08:07:14;5.50;99.90
37594;DHT22;23441;50.856;6.076;2024-02-23T08:10:00;5.50;99.90
37594;DHT22;23441;50.856;6.076;2024-02-23T08:12:46;5.50;99.90
37594;DHT22;23441;50.856;6.076;2024-02-23T08:15:32;5.40;99.90
37594;DHT22;23441;50.856;6.076;2024-02-23T08:18:18;5.50;99.90
37594;DHT22;23441;50.856;6.076;2024-02-23T08:21:04;5.50;99.90
37594;DHT22;23441;50.856;6.076;2024-02-23T08:23:51;5.60;99.90
37594;DHT22;23441;50.856;6.076;2024-02-23T08:26:37;5.70;99.90
37594;DHT22;23441;50.856;6.076;2024-02-23T08:29:25;5.70;99.90
37594;DHT22;23441;50.856;6.076;2024-02-23T08:32:11;5.80;99.90
37594;DHT22;23441;50.856;6.076;2024-02-23T08:34:58;5.90;99.90
37594;DHT22;23441;50.856;6.076;2024-02-23T08:37:48;5.90;99.90
37594;DHT22;23441;50.856;6.076;2024-02-23T08:40:34;5.90;99.90
37594;DHT22;23441;50.856;6.076;2024-02-23T08:43:20;6.00;99.90
37594;DHT22;23441;50.856;6.076;2024-02-23T08:46:06;6.00;99.90
37594;DHT22;23441;50.856;6.076;2024-02-23T08:48:53;6.10;99.90
37594;DHT22;23441;50.856;6.076;2024-02-23T08:51:39;6.10;99.90
37594;DHT22;23441;50.856;6.076;2024-02-23T08:54:25;6.20;99.90
37594;DHT22;23441;50.856;6.076;2024-02-23T08:57:11;6.30;99.90
37594;DHT22;23441;50.856;6.076;2024-02-23T08:59:57;6.40;99.90
37594;DHT22;23441;50.856;6.076;2024-02-23T09:02:43;6.40;99.90
37594;DHT22;23441;50.856;6.076;2024-02-23T09:05:29;6.50;99.90
37594;DHT22;23441;50.856;6.076;2024-02-23T09:08:15;6.50;99.90
37594;DHT22;23441;50.856;6.076;2024-02-23T09:11:01;6.50;99.90
37594;DHT22;23441;50.856;6.076;2024-02-23T09:13:47;6.60;99.90
37594;DHT22;23441;50.856;6.076;2024-02-23T09:16:33;6.60;99.90
37594;DHT22;23441;50.856;6.076;2024-02-23T09:19:19;6.60;99.90
37594;DHT22;23441;50.856;6.076;2024-02-23T09:22:06;6.60;99.90
37594;DHT22;23441;50.856;6.076;2024-02-23T09:24:52;6.70;99.90
37594;DHT22;23441;50.856;6.076;2024-02-23T09:27:39;6.80;99.90
37594;DHT22;23441;50.856;6.076;2024-02-23T09:30:29;6.90;99.90
37594;DHT22;23441;50.856;6.076;2024-02-23T09:33:15;6.90;99.90
37594;DHT22;23441;50.856;6.076;2024-02-23T09:36:01;7.00;99.90
37594;DHT22;23441;50.856;6.076;2024-02-23T09:38:47;7.00;99.90
37594;DHT22;23441;50.856;6.076;2024-02-23T09:41:35;7.10;99.90
37594;DHT22;23441;50.856;6.076;2024-02-23T09:44:22;7.40;99.90
37594;DHT22;23441;50.856;6.076;2024-02-23T09:47:08;7.60;99.90
37594;DHT22;23441;50.856;6.076;2024-02-23T09:49:56;7.80;99.90
37594;DHT22;23441;50.856;6.076;2024-02-23T09:52:42;7.90;99.90
37594;DHT22;23441;50.856;6.076;2024-02-23T09:55:28;8.00;99.90
37594;DHT22;23441;50.856;6.076;2024-02-23T09:58:15;8.00;99.90
37594;DHT22;23441;50.856;6.076;2024-02-23T10:01:03;8.00;99.90
37594;DHT22;23441;50.856;6.076;2024-02-23T10:03:49;7.90;99.90
37594;DHT22;23441;50.856;6.076;2024-02-23T10:06:35;7.90;99.90
37594;DHT22;23441;50.856;6.076;2024-02-23T10:09:21;7.80;99.90
37594;DHT22;23441;50.856;6.076;2024-02-23T10:12:07;7.70;99.90
37594;DHT22;23441;50.856;6.076;2024-02-23T10:14:53;7.60;99.90
37594;DHT22;23441;50.856;6.076;2024-02-23T10:17:39;7.60;99.90
37594;DHT22;23441;50.856;6.076;2024-02-23T10:20:26;7.70;99.90
37594;DHT22;23441;50.856;6.076;2024-02-23T10:23:12;7.60;99.90
37594;DHT22;23441;50.856;6.076;2024-02-23T10:25:59;7.60;99.90
37594;DHT22;23441;50.856;6.076;2024-02-23T10:28:45;7.60;99.90
37594;DHT22;23441;50.856;6.076;2024-02-23T10:31:35;7.70;99.90
37594;DHT22;23441;50.856;6.076;2024-02-23T10:34:27;7.70;99.90
37594;DHT22;23441;50.856;6.076;2024-02-23T10:37:13;7.80;99.90
37594;DHT22;23441;50.856;6.076;2024-02-23T10:40:00;8.00;99.90
37594;DHT22;23441;50.856;6.076;2024-02-23T10:42:47;8.20;99.90
37594;DHT22;23441;50.856;6.076;2024-02-23T10:45:37;8.40;99.90
37594;DHT22;23441;50.856;6.076;2024-02-23T10:48:26;8.30;99.90
37594;DHT22;23441;50.856;6.076;2024-02-23T10:51:14;8.40;99.90
37594;DHT22;23441;50.856;6.076;2024-02-23T10:54:00;8.40;99.90
37594;DHT22;23441;50.856;6.076;2024-02-23T10:56:49;8.40;99.90
37594;DHT22;23441;50.856;6.076;2024-02-23T10:59:35;8.20;99.90
37594;DHT22;23441;50.856;6.076;2024-02-23T11:02:23;8.20;99.90
37594;DHT22;23441;50.856;6.076;2024-02-23T11:05:11;8.10;99.90
37594;DHT22;23441;50.856;6.076;2024-02-23T11:07:58;8.00;99.90
37594;DHT22;23441;50.856;6.076;2024-02-23T11:10:51;8.00;99.90
37594;DHT22;23441;50.856;6.076;2024-02-23T11:13:40;8.00;99.90
37594;DHT22;23441;50.856;6.076;2024-02-23T11:16:26;7.90;99.90
37594;DHT22;23441;50.856;6.076;2024-02-23T11:19:14;7.80;99.90
37594;DHT22;23441;50.856;6.076;2024-02-23T11:22:02;7.80;99.90
37594;DHT22;23441;50.856;6.076;2024-02-23T11:24:49;7.80;99.90
37594;DHT22;23441;50.856;6.076;2024-02-23T11:27:40;7.70;99.90
37594;DHT22;23441;50.856;6.076;2024-02-23T11:30:28;7.60;99.90
37594;DHT22;23441;50.856;6.076;2024-02-23T11:33:14;7.50;99.90
37594;DHT22;23441;50.856;6.076;2024-02-23T11:36:07;7.50;99.90
37594;DHT22;23441;50.856;6.076;2024-02-23T11:38:53;7.50;99.90
37594;DHT22;23441;50.856;6.076;2024-02-23T11:41:43;7.50;99.90
37594;DHT22;23441;50.856;6.076;2024-02-23T11:44:29;7.60;99.90
37594;DHT22;23441;50.856;6.076;2024-02-23T11:47:15;7.70;99.90
37594;DHT22;23441;50.856;6.076;2024-02-23T11:50:03;7.80;99.90
37594;DHT22;23441;50.856;6.076;2024-02-23T11:52:49;8.00;99.90
37594;DHT22;23441;50.856;6.076;2024-02-23T11:55:37;8.10;99.90
37594;DHT22;23441;50.856;6.076;2024-02-23T11:58:23;8.20;99.90
37594;DHT22;23441;50.856;6.076;2024-02-23T12:01:09;8.30;99.90
37594;DHT22;23441;50.856;6.076;2024-02-23T12:03:55;8.30;99.90
37594;DHT22;23441;50.856;6.076;2024-02-23T12:06:42;8.50;99.90
37594;DHT22;23441;50.856;6.076;2024-02-23T12:09:28;8.60;99.90
37594;DHT22;23441;50.856;6.076;2024-02-23T12:12:14;8.70;99.90
37594;DHT22;23441;50.856;6.076;2024-02-23T12:15:00;8.80;99.90
37594;DHT22;23441;50.856;6.076;2024-02-23T12:17:47;8.80;99.90
37594;DHT22;23441;50.856;6.076;2024-02-23T12:20:33;8.70;99.90
37594;DHT22;23441;50.856;6.076;2024-02-23T12:23:20;8.70;99.90
37594;DHT22;23441;50.856;6.076;2024-02-23T12:26:06;9.00;99.90
37594;DHT22;23441;50.856;6.076;2024-02-23T12:29:03;9.40;99.90
37594;DHT22;23441;50.856;6.076;2024-02-23T12:31:49;9.60;99.90
37594;DHT22;23441;50.856;6.076;2024-02-23T12:34:35;9.60;99.90
37594;DHT22;23441;50.856;6.076;2024-02-23T12:37:21;9.40;99.90
37594;DHT22;23441;50.856;6.076;2024-02-23T12:40:11;9.10;99.90
37594;DHT22;23441;50.856;6.076;2024-02-23T12:42:58;9.10;99.90
37594;DHT22;23441;50.856;6.076;2024-02-23T12:45:44;8.90;99.90
37594;DHT22;23441;50.856;6.076;2024-02-23T12:48:31;8.90;99.90
37594;DHT22;23441;50.856;6.076;2024-02-23T12:51:18;9.10;99.90
37594;DHT22;23441;50.856;6.076;2024-02-23T12:54:03;9.20;99.90
37594;DHT22;23441;50.856;6.076;2024-02-23T12:56:50;9.30;99.90
37594;DHT22;23441;50.856;6.076;2024-02-23T12:59:36;9.30;99.90
37594;DHT22;23441;50.856;6.076;2024-02-23T13:02:22;9.10;99.90
37594;DHT22;23441;50.856;6.076;2024-02-23T13:05:08;9.20;99.90
37594;DHT22;23441;50.856;6.076;2024-02-23T13:07:54;9.40;99.90
37594;DHT22;23441;50.856;6.076;2024-02-23T13:10:40;9.30;99.90
37594;DHT22;23441;50.856;6.076;2024-02-23T13:13:26;9.10;99.90
37594;DHT22;23441;50.856;6.076;2024-02-23T13:16:12;9.00;99.90
37594;DHT22;23441;50.856;6.076;2024-02-23T13:19:00;9.00;99.90
37594;DHT22;23441;50.856;6.076;2024-02-23T13:21:46;9.00;99.90
37594;DHT22;23441;50.856;6.076;2024-02-23T13:24:32;9.10;99.90
37594;DHT22;23441;50.856;6.076;2024-02-23T13:27:18;9.20;99.90
37594;DHT22;23441;50.856;6.076;2024-02-23T13:30:04;9.40;99.90
37594;DHT22;23441;50.856;6.076;2024-02-23T13:32:50;9.50;99.90
37594;DHT22;23441;50.856;6.076;2024-02-23T13:35:36;9.50;99.90
37594;DHT22;23441;50.856;6.076;2024-02-23T13:38:22;9.60;99.90
37594;DHT22;23441;50.856;6.076;2024-02-23T13:41:08;9.70;99.90
37594;DHT22;23441;50.856;6.076;2024-02-23T13:43:54;9.60;99.90
37594;DHT22;23441;50.856;6.076;2024-02-23T13:46:41;9.40;99.90
37594;DHT22;23441;50.856;6.076;2024-02-23T13:49:27;9.20;99.90
37594;DHT22;23441;50.856;6.076;2024-02-23T13:52:13;9.30;99.90
37594;DHT22;23441;50.856;6.076;2024-02-23T13:55:00;9.40;99.90
37594;DHT22;23441;50.856;6.076;2024-02-23T13:57:47;9.40;99.90
37594;DHT22;23441;50.856;6.076;2024-02-23T14:00:33;9.40;99.90
37594;DHT22;23441;50.856;6.076;2024-02-23T14:03:19;9.40;99.90
37594;DHT22;23441;50.856;6.076;2024-02-23T14:06:05;9.40;99.90
37594;DHT22;23441;50.856;6.076;2024-02-23T14:08:51;9.50;99.90
37594;DHT22;23441;50.856;6.076;2024-02-23T14:11:37;9.40;99.90
37594;DHT22;23441;50.856;6.076;2024-02-23T14:14:23;9.30;99.90
37594;DHT22;23441;50.856;6.076;2024-02-23T14:17:09;9.20;99.90
37594;DHT22;23441;50.856;6.076;2024-02-23T14:19:55;9.20;99.90
37594;DHT22;23441;50.856;6.076;2024-02-23T14:22:41;9.20;99.90
37594;DHT22;23441;50.856;6.076;2024-02-23T14:25:27;9.40;99.90
37594;DHT22;23441;50.856;6.076;2024-02-23T14:28:13;9.50;99.90
37594;DHT22;23441;50.856;6.076;2024-02-23T14:30:59;9.40;99.90
37594;DHT22;23441;50.856;6.076;2024-02-23T14:33:46;9.40;99.90
37594;DHT22;23441;50.856;6.076;2024-02-23T14:36:32;9.40;99.90
37594;DHT22;23441;50.856;6.076;2024-02-23T14:39:20;9.10;99.90
37594;DHT22;23441;50.856;6.076;2024-02-23T14:42:06;9.10;99.90
37594;DHT22;23441;50.856;6.076;2024-02-23T14:44:55;9.20;99.90
37594;DHT22;23441;50.856;6.076;2024-02-23T14:47:41;9.20;99.90
37594;DHT22;23441;50.856;6.076;2024-02-23T14:50:30;9.20;99.90
37594;DHT22;23441;50.856;6.076;2024-02-23T14:53:16;9.30;99.90
37594;DHT22;23441;50.856;6.076;2024-02-23T14:56:02;9.30;99.90
37594;DHT22;23441;50.856;6.076;2024-02-23T14:58:49;9.10;99.90
37594;DHT22;23441;50.856;6.076;2024-02-23T15:01:38;9.10;99.90
37594;DHT22;23441;50.856;6.076;2024-02-23T15:04:26;9.00;99.90
37594;DHT22;23441;50.856;6.076;2024-02-23T15:07:12;8.90;99.90
37594;DHT22;23441;50.856;6.076;2024-02-23T15:09:58;8.90;99.90
37594;DHT22;23441;50.856;6.076;2024-02-23T15:12:45;9.00;99.90
37594;DHT22;23441;50.856;6.076;2024-02-23T15:15:31;9.00;99.90
37594;DHT22;23441;50.856;6.076;2024-02-23T15:18:17;8.90;99.90
37594;DHT22;23441;50.856;6.076;2024-02-23T15:21:03;8.90;99.90
37594;DHT22;23441;50.856;6.076;2024-02-23T15:23:49;8.80;99.90
37594;DHT22;23441;50.856;6.076;2024-02-23T15:26:35;8.70;99.90
37594;DHT22;23441;50.856;6.076;2024-02-23T15:29:21;8.60;99.90
37594;DHT22;23441;50.856;6.076;2024-02-23T15:32:07;8.70;99.90
37594;DHT22;23441;50.856;6.076;2024-02-23T15:34:53;8.70;99.90
37594;DHT22;23441;50.856;6.076;2024-02-23T15:37:39;8.60;99.90
37594;DHT22;23441;50.856;6.076;2024-02-23T15:40:25;8.50;99.90
37594;DHT22;23441;50.856;6.076;2024-02-23T15:43:11;8.50;99.90
37594;DHT22;23441;50.856;6.076;2024-02-23T15:45:57;8.40;99.90
37594;DHT22;23441;50.856;6.076;2024-02-23T15:48:43;8.40;99.90
37594;DHT22;23441;50.856;6.076;2024-02-23T15:51:28;8.30;99.90
37594;DHT22;23441;50.856;6.076;2024-02-23T15:54:19;8.40;99.90
37594;DHT22;23441;50.856;6.076;2024-02-23T15:57:05;8.40;99.90
37594;DHT22;23441;50.856;6.076;2024-02-23T15:59:51;8.40;99.90
37594;DHT22;23441;50.856;6.076;2024-02-23T16:02:37;8.30;99.90
37594;DHT22;23441;50.856;6.076;2024-02-23T16:05:23;8.20;99.90
37594;DHT22;23441;50.856;6.076;2024-02-23T16:08:09;8.30;99.90
37594;DHT22;23441;50.856;6.076;2024-02-23T16:10:55;8.30;99.90
37594;DHT22;23441;50.856;6.076;2024-02-23T16:13:42;8.20;99.90
37594;DHT22;23441;50.856;6.076;2024-02-23T16:16:28;8.10;99.90
37594;DHT22;23441;50.856;6.076;2024-02-23T16:19:13;8.10;99.90
37594;DHT22;23441;50.856;6.076;2024-02-23T16:21:59;8.00;99.90
37594;DHT22;23441;50.856;6.076;2024-02-23T16:24:46;8.00;99.90
37594;DHT22;23441;50.856;6.076;2024-02-23T16:27:32;8.00;99.90
37594;DHT22;23441;50.856;6.076;2024-02-23T16:30:18;7.90;99.90
37594;DHT22;23441;50.856;6.076;2024-02-23T16:33:04;7.80;99.90
37594;DHT22;23441;50.856;6.076;2024-02-23T16:35:51;7.80;99.90
37594;DHT22;23441;50.856;6.076;2024-02-23T16:38:37;7.80;99.90
37594;DHT22;23441;50.856;6.076;2024-02-23T16:41:25;7.70;99.90
37594;DHT22;23441;50.856;6.076;2024-02-23T16:44:12;7.70;99.90
37594;DHT22;23441;50.856;6.076;2024-02-23T16:47:00;7.70;99.90
37594;DHT22;23441;50.856;6.076;2024-02-23T16:49:45;7.70;99.90
37594;DHT22;23441;50.856;6.076;2024-02-23T16:52:31;7.60;99.90
37594;DHT22;23441;50.856;6.076;2024-02-23T16:55:17;7.50;99.90
37594;DHT22;23441;50.856;6.076;2024-02-23T16:58:04;7.50;99.90
37594;DHT22;23441;50.856;6.076;2024-02-23T17:00:50;7.40;99.90
37594;DHT22;23441;50.856;6.076;2024-02-23T17:03:38;7.40;99.90
37594;DHT22;23441;50.856;6.076;2024-02-23T17:06:25;7.40;99.90
37594;DHT22;23441;50.856;6.076;2024-02-23T17:09:11;7.40;99.90
37594;DHT22;23441;50.856;6.076;2024-02-23T17:11:57;7.30;99.90
37594;DHT22;23441;50.856;6.076;2024-02-23T17:14:43;7.30;99.90
37594;DHT22;23441;50.856;6.076;2024-02-23T17:17:29;7.20;99.90
37594;DHT22;23441;50.856;6.076;2024-02-23T17:20:15;7.20;99.90
37594;DHT22;23441;50.856;6.076;2024-02-23T17:23:02;7.10;99.90
37594;DHT22;23441;50.856;6.076;2024-02-23T17:25:48;7.10;99.90
37594;DHT22;23441;50.856;6.076;2024-02-23T17:28:35;7.10;99.90
37594;DHT22;23441;50.856;6.076;2024-02-23T17:31:23;7.10;99.90
37594;DHT22;23441;50.856;6.076;2024-02-23T17:34:09;7.10;99.90
37594;DHT22;23441;50.856;6.076;2024-02-23T17:36:57;7.10;99.90
37594;DHT22;23441;50.856;6.076;2024-02-23T17:39:45;7.00;99.90
37594;DHT22;23441;50.856;6.076;2024-02-23T17:42:31;7.00;99.90
37594;DHT22;23441;50.856;6.076;2024-02-23T17:45:17;7.00;99.90
37594;DHT22;23441;50.856;6.076;2024-02-23T17:48:03;7.00;99.90